Time;durP1;ratioP1;P1;durP2;ratioP2;P2;SDS_P1;SDS_P2;PMS_P1;PMS_P2;Temp;Humidity;BMP_temperature;BMP_pressure;BME280_temperature;BME280_humidity;BME280_pressure;Samples;Min_cycle;Max_cycle;Signal;HPM_P1;HPM_P2
2023/03/02 00:01:58;;;;;;;14.23;5.57;;;2.40;99.90;;;;;;4989207;28;20035;-79
2023/03/02 00:04:39;;;;;;;16.63;6.25;;;2.30;99.90;;;;;;4985812;28;20569;-80
2023/03/02 00:07:09;;;;;;;16.58;4.85;;;2.30;99.90;;;;;;4986713;28;20061;-78
2023/03/02 00:09:36;;;;;;;10.95;5.45;;;2.30;99.90;;;;;;4973998;28;20106;-79
2023/03/02 00:12:03;;;;;;;14.98;6.28;;;2.30;99.90;;;;;;4982996;28;20033;-79
2023/03/02 00:14:29;;;;;;;13.25;5.55;;;2.20;99.90;;;;;;4991026;28;20509;-78
2023/03/02 00:16:55;;;;;;;8.98;5.63;;;2.30;99.90;;;;;;4984295;28;20034;-79
2023/03/02 00:19:21;;;;;;;13.70;5.68;;;2.40;99.90;;;;;;4991548;28;20084;-79
2023/03/02 00:21:47;;;;;;;12.63;5.10;;;2.40;99.90;;;;;;4985737;28;20105;-79
2023/03/02 00:24:14;;;;;;;11.73;5.30;;;2.40;99.90;;;;;;4991961;28;20355;-79
2023/03/02 00:26:41;;;;;;;15.52;5.70;;;2.30;99.90;;;;;;4986062;28;20110;-79
2023/03/02 00:29:07;;;;;;;13.15;5.70;;;2.30;99.90;;;;;;4974820;28;20038;-79
2023/03/02 00:31:33;;;;;;;10.93;5.28;;;2.30;99.90;;;;;;4984467;28;20560;-79
2023/03/02 00:33:59;;;;;;;13.18;7.15;;;2.40;99.90;;;;;;4990788;28;20034;-79
2023/03/02 00:36:25;;;;;;;20.23;6.70;;;2.30;99.90;;;;;;4989572;28;20030;-78
2023/03/02 00:38:52;;;;;;;9.98;4.78;;;2.30;99.90;;;;;;4990632;28;20046;-78
2023/03/02 00:41:20;;;;;;;8.45;5.13;;;2.30;99.90;;;;;;4989111;28;20042;-78
2023/03/02 00:43:47;;;;;;;12.07;5.28;;;2.20;99.90;;;;;;4992193;28;20018;-79
2023/03/02 00:46:21;;;;;;;12.63;5.32;;;2.10;99.90;;;;;;4987823;28;20049;-79
2023/03/02 00:48:47;;;;;;;12.40;4.45;;;2.10;99.90;;;;;;4991950;28;20030;-79
2023/03/02 00:51:14;;;;;;;10.20;5.10;;;2.10;99.90;;;;;;4982541;28;20037;-79
2023/03/02 00:53:40;;;;;;;16.55;6.60;;;2.10;99.90;;;;;;4983857;28;20141;-79
2023/03/02 00:56:07;;;;;;;9.65;4.88;;;2.10;99.90;;;;;;4979396;28;20081;-78
2023/03/02 00:58:33;;;;;;;9.75;5.65;;;2.00;99.90;;;;;;4969984;28;20033;-78
2023/03/02 01:01:06;;;;;;;13.70;7.60;;;1.90;99.90;;;;;;4982870;28;20065;-79
2023/03/02 01:03:32;;;;;;;14.35;6.85;;;1.90;99.90;;;;;;4991708;28;20022;-79
2023/03/02 01:05:59;;;;;;;10.15;5.93;;;2.00;99.90;;;;;;4984671;28;20034;-79
2023/03/02 01:08:25;;;;;;;16.13;7.43;;;2.00;99.90;;;;;;4973937;28;20116;-78
2023/03/02 01:10:51;;;;;;;12.48;5.65;;;2.20;99.90;;;;;;4983877;28;20060;-79
2023/03/02 01:13:18;;;;;;;20.70;6.38;;;2.40;99.90;;;;;;4984054;28;20057;-79
2023/03/02 01:15:44;;;;;;;14.40;5.95;;;2.50;99.90;;;;;;4991123;28;20026;-78
2023/03/02 01:18:10;;;;;;;20.88;7.95;;;2.50;99.90;;;;;;4962176;28;20047;-78
2023/03/02 01:20:36;;;;;;;10.57;5.20;;;2.50;99.90;;;;;;4969280;28;20035;-79
2023/03/02 01:23:02;;;;;;;15.70;6.45;;;2.60;99.90;;;;;;4969784;28;20034;-78
2023/03/02 01:25:28;;;;;;;14.00;5.13;;;2.50;99.90;;;;;;4973856;28;20048;-78
2023/03/02 01:27:54;;;;;;;18.33;6.40;;;2.30;99.90;;;;;;4976829;28;20027;-78
2023/03/02 01:30:19;;;;;;;15.07;6.05;;;2.20;99.90;;;;;;4985373;28;20037;-79
2023/03/02 01:32:45;;;;;;;14.57;5.97;;;2.10;99.90;;;;;;4983313;28;20125;-80
2023/03/02 01:35:11;;;;;;;11.18;5.47;;;2.00;99.90;;;;;;4960422;28;20034;-79
2023/03/02 01:37:37;;;;;;;10.25;5.40;;;1.90;99.90;;;;;;4977187;28;20121;-80
2023/03/02 01:40:05;;;;;;;13.65;5.35;;;1.90;99.90;;;;;;4976487;28;20081;-78
2023/03/02 01:42:49;;;;;;;16.80;6.43;;;1.80;99.90;;;;;;4962573;28;20182;-79
2023/03/02 01:45:43;;;;;;;13.48;5.13;;;1.70;99.90;;;;;;4965307;28;20029;-79
2023/03/02 01:48:12;;;;;;;16.23;5.07;;;1.80;99.90;;;;;;4961426;28;20049;-79
2023/03/02 01:50:38;;;;;;;10.20;6.00;;;1.50;99.90;;;;;;4956821;28;20049;-79
2023/03/02 01:53:05;;;;;;;16.17;5.90;;;1.40;99.90;;;;;;4989276;28;20026;-78
2023/03/02 01:55:32;;;;;;;19.58;6.47;;;1.30;99.90;;;;;;4985173;28;20023;-79
2023/03/02 01:57:59;;;;;;;17.35;6.20;;;1.30;99.90;;;;;;4971606;28;20027;-79
2023/03/02 02:00:30;;;;;;;9.98;4.30;;;1.50;99.90;;;;;;4988722;28;20030;-79
2023/03/02 02:03:07;;;;;;;14.63;7.05;;;1.70;99.90;;;;;;4966035;28;20040;-79
2023/03/02 02:05:39;;;;;;;11.38;6.20;;;1.90;99.90;;;;;;4981922;28;20139;-79
2023/03/02 02:08:06;;;;;;;10.18;5.28;;;2.00;99.90;;;;;;4960333;28;20495;-80
2023/03/02 02:10:33;;;;;;;10.48;5.78;;;2.10;99.90;;;;;;4980357;28;20494;-79
2023/03/02 02:13:00;;;;;;;12.50;6.88;;;2.20;99.90;;;;;;4969306;28;20034;-80
2023/03/02 02:15:26;;;;;;;14.35;5.95;;;2.20;99.90;;;;;;4988333;28;20124;-79
2023/03/02 02:17:55;;;;;;;18.83;6.53;;;2.20;99.90;;;;;;4961822;28;20165;-79
2023/03/02 02:20:59;;;;;;;13.30;7.75;;;2.20;99.90;;;;;;4989954;28;20062;-79
2023/03/02 02:23:34;;;;;;;12.43;5.38;;;2.20;99.90;;;;;;4909523;29;20032;-79
2023/03/02 02:26:54;;;;;;;12.27;4.95;;;2.20;99.90;;;;;;4896817;29;20032;-79
2023/03/02 02:29:32;;;;;;;12.18;6.38;;;2.10;99.90;;;;;;4865924;29;20139;-79
2023/03/02 02:32:11;;;;;;;13.43;6.20;;;2.10;99.90;;;;;;4873328;29;20059;-80
2023/03/02 02:35:20;;;;;;;11.88;5.90;;;2.00;99.90;;;;;;4873625;29;20037;-79
2023/03/02 02:38:01;;;;;;;14.93;6.32;;;2.00;99.90;;;;;;4854140;29;20033;-79
2023/03/02 02:40:57;;;;;;;12.35;5.85;;;1.90;99.90;;;;;;4853451;29;20601;-77
2023/03/02 02:43:23;;;;;;;12.50;6.63;;;1.90;99.90;;;;;;4862041;29;20049;-79
2023/03/02 02:45:54;;;;;;;17.38;7.82;;;1.80;99.90;;;;;;4852258;29;20450;-78
2023/03/02 02:48:24;;;;;;;14.70;5.57;;;1.70;99.90;;;;;;4857307;29;20124;-79
2023/03/02 02:50:59;;;;;;;13.10;5.85;;;1.70;99.90;;;;;;4864307;29;20135;-78
2023/03/02 02:54:02;;;;;;;11.90;5.55;;;1.60;99.90;;;;;;4875390;29;20810;-78
2023/03/02 02:56:35;;;;;;;10.60;3.97;;;1.60;99.90;;;;;;4921496;29;20052;-78
2023/03/02 02:59:11;;;;;;;11.00;5.13;;;1.60;99.90;;;;;;4937796;28;20410;-78
2023/03/02 03:01:37;;;;;;;16.15;6.20;;;1.60;99.90;;;;;;4992566;28;20031;-78
2023/03/02 03:04:05;;;;;;;15.32;5.90;;;1.50;99.90;;;;;;4986446;28;20034;-78
2023/03/02 03:06:40;;;;;;;10.40;5.22;;;1.50;99.90;;;;;;4993866;28;20060;-78
2023/03/02 03:09:09;;;;;;;13.20;5.40;;;1.50;99.90;;;;;;4986005;28;20026;-78
2023/03/02 03:11:40;;;;;;;13.93;5.07;;;1.40;99.90;;;;;;4992578;28;20089;-78
2023/03/02 03:14:28;;;;;;;18.67;6.38;;;1.40;99.90;;;;;;4985084;28;20042;-78
2023/03/02 03:16:53;;;;;;;21.40;4.47;;;1.40;99.90;;;;;;4974145;28;20069;-79
2023/03/02 03:19:27;;;;;;;10.55;5.00;;;1.30;99.90;;;;;;4991544;28;20061;-79
2023/03/02 03:21:57;;;;;;;10.13;5.88;;;1.30;99.90;;;;;;4976316;28;20030;-78
2023/03/02 03:24:24;;;;;;;14.88;7.47;;;1.30;99.90;;;;;;4991075;28;20117;-78
2023/03/02 03:26:53;;;;;;;15.27;6.53;;;1.30;99.90;;;;;;4989819;28;20471;-77
2023/03/02 03:29:23;;;;;;;17.35;6.32;;;1.30;99.90;;;;;;4991258;28;20621;-79
2023/03/02 03:31:53;;;;;;;22.40;5.97;;;1.20;99.90;;;;;;4973505;28;20027;-80
2023/03/02 03:34:23;;;;;;;9.27;4.78;;;1.20;99.90;;;;;;4974314;28;20056;-77
2023/03/02 03:36:49;;;;;;;14.50;5.93;;;1.20;99.90;;;;;;4958699;28;20101;-78
2023/03/02 03:39:16;;;;;;;19.92;5.65;;;1.30;99.90;;;;;;4986183;28;20038;-79
2023/03/02 03:41:43;;;;;;;9.43;5.93;;;1.30;99.90;;;;;;4984402;28;20038;-80
2023/03/02 03:44:09;;;;;;;15.60;6.03;;;1.30;99.90;;;;;;4986400;28;20035;-79
2023/03/02 03:46:35;;;;;;;8.23;4.43;;;1.30;99.90;;;;;;4973474;28;20015;-79
2023/03/02 03:49:02;;;;;;;9.65;4.35;;;1.30;99.90;;;;;;4971951;28;20030;-79
2023/03/02 03:51:34;;;;;;;15.13;7.07;;;1.30;99.90;;;;;;4980935;28;20504;-78
2023/03/02 03:54:02;;;;;;;8.07;4.22;;;1.30;99.90;;;;;;4986460;28;20061;-78
2023/03/02 03:56:32;;;;;;;18.67;5.97;;;1.30;99.90;;;;;;4993217;28;20121;-78
2023/03/02 03:59:05;;;;;;;14.15;4.75;;;1.30;99.90;;;;;;4983154;28;20068;-80
2023/03/02 04:01:41;;;;;;;12.82;5.35;;;1.20;99.90;;;;;;4991693;28;20041;-78
2023/03/02 04:04:12;;;;;;;12.02;4.68;;;1.20;99.90;;;;;;4989638;28;20065;-78
2023/03/02 04:06:37;;;;;;;12.63;5.70;;;1.20;99.90;;;;;;4974967;28;20030;-79
2023/03/02 04:09:05;;;;;;;11.43;4.85;;;1.30;99.90;;;;;;4992114;28;20045;-78
2023/03/02 04:11:38;;;;;;;18.58;6.22;;;1.20;99.90;;;;;;4985448;28;20041;-78
2023/03/02 04:14:05;;;;;;;17.90;6.57;;;1.20;99.90;;;;;;4992250;28;20026;-78
2023/03/02 04:16:31;;;;;;;13.60;5.10;;;1.10;99.90;;;;;;4973989;28;20023;-78
2023/03/02 04:18:57;;;;;;;14.32;6.43;;;1.10;99.90;;;;;;4972938;28;20101;-78
2023/03/02 04:21:24;;;;;;;10.13;5.63;;;1.10;99.90;;;;;;4992192;28;20070;-78
2023/03/02 04:23:50;;;;;;;19.83;7.30;;;1.10;99.90;;;;;;4992389;28;20433;-78
2023/03/02 04:26:16;;;;;;;11.32;5.50;;;1.10;99.90;;;;;;4992075;28;20026;-78
2023/03/02 04:28:42;;;;;;;14.18;5.88;;;1.10;99.90;;;;;;4991830;28;20501;-78
2023/03/02 04:31:08;;;;;;;17.80;6.25;;;1.10;99.90;;;;;;4974435;28;20042;-77
2023/03/02 04:33:33;;;;;;;11.85;5.90;;;1.10;99.90;;;;;;4991893;28;20615;-78
2023/03/02 04:36:00;;;;;;;19.17;5.00;;;1.10;99.90;;;;;;4991738;28;20026;-78
2023/03/02 04:38:28;;;;;;;10.80;4.35;;;1.00;99.90;;;;;;4972407;28;20031;-78
2023/03/02 04:40:56;;;;;;;9.45;4.65;;;1.00;99.90;;;;;;4972372;28;20438;-78
2023/03/02 04:43:24;;;;;;;14.65;5.10;;;0.90;99.90;;;;;;4972314;28;20030;-78
2023/03/02 04:45:51;;;;;;;9.30;3.92;;;1.00;99.90;;;;;;4955480;28;20029;-78
2023/03/02 04:48:18;;;;;;;11.75;5.07;;;0.90;99.90;;;;;;4955104;28;20039;-78
2023/03/02 04:50:44;;;;;;;8.82;4.53;;;0.90;99.90;;;;;;4972174;28;20113;-78
2023/03/02 04:53:11;;;;;;;12.95;5.07;;;0.90;99.90;;;;;;4939026;28;20033;-78
2023/03/02 04:55:37;;;;;;;13.15;6.07;;;0.90;99.90;;;;;;4971784;28;20030;-78
2023/03/02 04:58:04;;;;;;;10.07;4.88;;;0.90;99.90;;;;;;4954940;28;20039;-78
2023/03/02 05:00:33;;;;;;;17.77;7.55;;;0.90;99.90;;;;;;4971904;28;20035;-78
2023/03/02 05:03:02;;;;;;;12.73;5.03;;;0.90;99.90;;;;;;4954821;28;20566;-78
2023/03/02 05:05:29;;;;;;;12.15;5.30;;;1.00;99.90;;;;;;4954758;28;20113;-78
2023/03/02 05:07:57;;;;;;;10.50;5.50;;;0.90;99.90;;;;;;4938765;28;20035;-78
2023/03/02 05:10:24;;;;;;;12.80;5.78;;;0.90;99.90;;;;;;4973924;28;20031;-78
2023/03/02 05:12:57;;;;;;;10.38;4.93;;;0.80;99.90;;;;;;4991412;28;20386;-78
2023/03/02 05:15:29;;;;;;;19.55;5.53;;;0.80;99.90;;;;;;4984936;28;20096;-78
2023/03/02 05:17:55;;;;;;;12.07;5.82;;;0.70;99.90;;;;;;4990175;28;20034;-78
2023/03/02 05:20:26;;;;;;;13.52;5.75;;;0.60;99.90;;;;;;4990808;28;20036;-78
2023/03/02 05:22:54;;;;;;;8.05;4.05;;;0.50;99.90;;;;;;4990310;28;20024;-78
2023/03/02 05:25:21;;;;;;;12.93;6.40;;;0.40;99.90;;;;;;4991441;28;20031;-78
2023/03/02 05:27:47;;;;;;;12.15;5.65;;;0.40;99.90;;;;;;4989741;28;20038;-78
2023/03/02 05:30:13;;;;;;;10.75;5.10;;;0.30;99.90;;;;;;4989530;28;20030;-78
2023/03/02 05:32:39;;;;;;;16.08;5.82;;;0.30;99.90;;;;;;4990801;28;20133;-78
2023/03/02 05:35:05;;;;;;;10.38;5.07;;;0.20;99.90;;;;;;4975826;28;20489;-77
2023/03/02 05:37:31;;;;;;;23.63;6.85;;;0.30;99.90;;;;;;4991047;28;20030;-77
2023/03/02 05:39:57;;;;;;;12.00;5.75;;;0.20;99.90;;;;;;4973135;28;20023;-77
2023/03/02 05:42:23;;;;;;;8.77;4.03;;;0.20;99.90;;;;;;4990912;28;20037;-76
2023/03/02 05:44:49;;;;;;;10.50;4.18;;;0.10;99.90;;;;;;4989850;28;20031;-76
2023/03/02 05:47:15;;;;;;;9.82;5.47;;;0.10;99.90;;;;;;4990867;28;20550;-79
2023/03/02 05:49:40;;;;;;;10.73;6.15;;;0.10;99.90;;;;;;4985766;28;20034;-77
2023/03/02 05:52:06;;;;;;;14.60;5.13;;;0.00;99.90;;;;;;4990277;28;20410;-77
2023/03/02 05:54:32;;;;;;;12.45;5.20;;;0.00;99.90;;;;;;4985707;28;20038;-78
2023/03/02 05:56:58;;;;;;;12.52;6.80;;;0.00;99.90;;;;;;4984254;28;20035;-76
2023/03/02 05:59:23;;;;;;;9.18;4.65;;;0.10;99.90;;;;;;4990421;28;20037;-75
2023/03/02 06:01:49;;;;;;;8.07;4.68;;;0.10;99.90;;;;;;4984100;28;20154;-75
2023/03/02 06:04:15;;;;;;;12.18;5.03;;;0.10;99.90;;;;;;4990480;28;20114;-76
2023/03/02 06:06:41;;;;;;;10.77;4.95;;;0.10;99.90;;;;;;4984881;28;20105;-76
2023/03/02 06:09:07;;;;;;;9.88;5.15;;;0.10;99.90;;;;;;4989957;28;20034;-76
2023/03/02 06:11:32;;;;;;;11.57;6.13;;;0.10;99.90;;;;;;4984296;28;20036;-74
2023/03/02 06:13:58;;;;;;;11.55;5.20;;;0.00;99.90;;;;;;4971502;28;20026;-86
2023/03/02 06:16:24;;;;;;;14.00;5.30;;;0.10;99.90;;;;;;4953247;28;20479;-74
2023/03/02 06:18:50;;;;;;;11.82;5.03;;;0.20;99.90;;;;;;4990977;28;20022;-78
2023/03/02 06:21:16;;;;;;;6.05;3.92;;;0.30;99.90;;;;;;4987786;28;20042;-78
2023/03/02 06:23:41;;;;;;;9.88;5.88;;;0.30;99.90;;;;;;4990024;28;20157;-78
2023/03/02 06:26:11;;;;;;;12.80;4.50;;;0.40;99.90;;;;;;4995204;28;20062;-79
2023/03/02 06:28:38;;;;;;;8.07;4.85;;;0.40;99.90;;;;;;4991537;28;20505;-78
2023/03/02 06:31:04;;;;;;;10.15;3.65;;;0.50;99.90;;;;;;4977830;28;20054;-77
2023/03/02 06:33:30;;;;;;;10.82;5.55;;;0.60;99.90;;;;;;4994478;28;20030;-76
2023/03/02 06:35:56;;;;;;;13.60;6.00;;;0.60;99.90;;;;;;4988924;28;20026;-75
2023/03/02 06:38:22;;;;;;;14.10;6.68;;;0.60;99.90;;;;;;4991535;28;20030;-76
2023/03/02 06:40:47;;;;;;;16.08;6.13;;;0.70;99.90;;;;;;4971171;28;20046;-79
2023/03/02 06:43:13;;;;;;;15.30;5.88;;;0.80;99.90;;;;;;4937023;28;20042;-80
2023/03/02 06:45:39;;;;;;;12.18;4.78;;;0.90;99.90;;;;;;4992536;28;20037;-77
2023/03/02 06:48:06;;;;;;;13.38;5.40;;;0.90;99.90;;;;;;4986310;28;20026;-79
2023/03/02 06:50:33;;;;;;;16.83;7.88;;;1.00;99.90;;;;;;4990123;28;20458;-78
2023/03/02 06:52:59;;;;;;;8.05;4.00;;;1.00;99.90;;;;;;4984052;28;20030;-79
2023/03/02 06:55:26;;;;;;;12.63;6.15;;;1.10;99.90;;;;;;4994014;28;20037;-84
2023/03/02 06:57:51;;;;;;;16.08;7.70;;;1.20;99.90;;;;;;4989652;28;20062;-80
2023/03/02 07:00:24;;;;;;;11.55;6.40;;;1.20;99.90;;;;;;4996025;28;20120;-81
2023/03/02 07:02:51;;;;;;;7.88;4.32;;;1.30;99.90;;;;;;4994500;28;20491;-78
2023/03/02 07:05:18;;;;;;;16.45;7.03;;;1.30;99.90;;;;;;4989542;28;20041;-80
2023/03/02 07:07:44;;;;;;;9.57;5.28;;;1.40;99.90;;;;;;4991811;28;20026;-75
2023/03/02 07:10:12;;;;;;;9.23;4.57;;;1.40;99.90;;;;;;5001490;23;20054;-75
2023/03/02 07:12:39;;;;;;;20.85;7.95;;;1.40;99.90;;;;;;4988703;28;20537;-73
2023/03/02 07:15:11;;;;;;;18.20;6.40;;;1.50;99.90;;;;;;4973525;28;20471;-76
2023/03/02 07:17:38;;;;;;;9.35;5.10;;;1.60;99.90;;;;;;4967882;28;20110;-72
2023/03/02 07:20:05;;;;;;;13.05;6.05;;;1.70;99.90;;;;;;4958777;28;20027;-74
2023/03/02 07:22:32;;;;;;;16.35;6.28;;;1.80;99.90;;;;;;4954345;28;20031;-74
2023/03/02 07:24:57;;;;;;;17.75;7.22;;;1.90;99.90;;;;;;4952668;29;20039;-74
2023/03/02 07:27:23;;;;;;;15.10;5.45;;;2.00;99.90;;;;;;4954459;29;20083;-75
2023/03/02 07:29:49;;;;;;;13.60;5.45;;;2.10;99.90;;;;;;4951700;28;20023;-74
2023/03/02 07:32:15;;;;;;;13.88;5.13;;;2.20;99.90;;;;;;4954510;28;20027;-75
2023/03/02 07:34:41;;;;;;;13.25;5.40;;;2.30;99.90;;;;;;4954126;28;20039;-75
2023/03/02 07:37:06;;;;;;;10.48;4.82;;;2.40;99.90;;;;;;4954087;28;20119;-76
2023/03/02 07:39:32;;;;;;;21.20;6.93;;;2.50;99.90;;;;;;4948483;29;20035;-75
2023/03/02 07:42:00;;;;;;;12.20;5.72;;;2.60;99.90;;;;;;4954176;28;20396;-76
2023/03/02 07:44:26;;;;;;;11.27;5.93;;;2.70;99.90;;;;;;4953797;28;20062;-76
2023/03/02 07:46:52;;;;;;;15.48;5.40;;;2.80;99.90;;;;;;4954020;28;20372;-76
2023/03/02 07:49:18;;;;;;;17.80;6.45;;;2.90;99.90;;;;;;4953609;28;20023;-76
2023/03/02 07:51:44;;;;;;;10.65;6.78;;;2.90;99.90;;;;;;4968802;28;20046;-77
2023/03/02 07:54:10;;;;;;;12.07;5.68;;;2.90;99.90;;;;;;4952695;28;20043;-76
2023/03/02 07:56:36;;;;;;;14.85;5.20;;;3.00;99.90;;;;;;4953903;28;20028;-76
2023/03/02 07:59:01;;;;;;;13.57;5.85;;;3.20;99.90;;;;;;4953410;28;20043;-76
2023/03/02 08:01:27;;;;;;;15.77;6.72;;;3.10;99.90;;;;;;4952207;29;20137;-75
2023/03/02 08:03:53;;;;;;;10.93;5.75;;;3.20;99.90;;;;;;4953341;28;20038;-75
2023/03/02 08:06:19;;;;;;;13.63;5.32;;;3.30;99.90;;;;;;4953882;28;20031;-74
2023/03/02 08:08:45;;;;;;;13.73;5.55;;;3.40;99.90;;;;;;4950353;28;20027;-75
2023/03/02 08:11:15;;;;;;;13.07;5.80;;;3.60;99.90;;;;;;4953067;29;20486;-75
2023/03/02 08:13:41;;;;;;;11.90;5.30;;;3.70;99.90;;;;;;4953091;28;20026;-75
2023/03/02 08:16:10;;;;;;;16.58;6.57;;;3.80;99.90;;;;;;4953661;28;20038;-75
2023/03/02 08:18:37;;;;;;;12.57;4.45;;;3.90;99.90;;;;;;4953116;28;20035;-74
2023/03/02 08:21:09;;;;;;;12.52;4.82;;;4.00;99.90;;;;;;4953294;28;20042;-75
2023/03/02 08:23:35;;;;;;;17.27;7.07;;;4.10;99.90;;;;;;4953111;28;20550;-75
2023/03/02 08:26:01;;;;;;;10.60;5.22;;;4.20;99.90;;;;;;4953273;28;20135;-75
2023/03/02 08:28:26;;;;;;;15.88;6.90;;;4.20;99.90;;;;;;4952590;28;20023;-74
2023/03/02 08:31:01;;;;;;;13.90;6.07;;;4.30;99.90;;;;;;4949809;28;20031;-73
2023/03/02 08:33:29;;;;;;;23.30;5.53;;;4.30;99.90;;;;;;4951366;28;20074;-74
2023/03/02 08:36:09;;;;;;;13.65;5.78;;;4.40;99.90;;;;;;4968024;28;20395;-74
2023/03/02 08:38:35;;;;;;;12.52;5.43;;;4.70;99.90;;;;;;4951143;29;20043;-74
2023/03/02 08:41:07;;;;;;;17.35;5.18;;;4.80;99.90;;;;;;4952050;28;20043;-76
2023/03/02 08:43:33;;;;;;;12.90;5.10;;;4.90;99.90;;;;;;4952321;28;20039;-74
2023/03/02 08:46:00;;;;;;;11.50;5.78;;;5.00;99.90;;;;;;4952895;28;20040;-73
2023/03/02 08:48:27;;;;;;;11.02;5.00;;;5.10;99.90;;;;;;4952433;28;20023;-74
2023/03/02 08:50:58;;;;;;;13.18;5.72;;;5.20;99.90;;;;;;4951710;29;20082;-73
2023/03/02 08:53:25;;;;;;;11.73;5.18;;;5.30;99.90;;;;;;4951267;28;20035;-73
2023/03/02 08:55:51;;;;;;;11.65;5.00;;;5.40;99.90;;;;;;4949277;29;20089;-74
2023/03/02 08:58:17;;;;;;;11.77;5.10;;;5.50;99.90;;;;;;4952349;29;20107;-74
2023/03/02 09:00:43;;;;;;;15.65;5.95;;;5.70;99.90;;;;;;4952321;29;20051;-74
2023/03/02 09:03:08;;;;;;;8.68;4.32;;;5.60;99.90;;;;;;4952371;28;20468;-74
2023/03/02 09:05:34;;;;;;;15.27;6.43;;;5.80;99.90;;;;;;4952054;28;20086;-75
2023/03/02 09:08:01;;;;;;;14.20;5.93;;;5.90;99.90;;;;;;4952339;29;20078;-74
2023/03/02 09:10:27;;;;;;;14.60;6.05;;;6.10;99.90;;;;;;4947941;28;20480;-74
2023/03/02 09:12:54;;;;;;;14.00;5.13;;;6.20;99.90;;;;;;4952536;29;20046;-74
2023/03/02 09:15:19;;;;;;;18.35;6.15;;;6.30;99.90;;;;;;4950732;28;20031;-74
2023/03/02 09:17:45;;;;;;;13.15;5.97;;;6.40;99.90;;;;;;4955519;28;20062;-75
2023/03/02 09:20:11;;;;;;;13.65;5.53;;;6.50;99.90;;;;;;4947935;28;20113;-74
2023/03/02 09:22:37;;;;;;;16.98;6.43;;;6.60;99.90;;;;;;4952208;29;20030;-75
2023/03/02 09:25:05;;;;;;;11.88;5.32;;;6.60;99.90;;;;;;4951846;28;20051;-75
2023/03/02 09:27:31;;;;;;;16.40;5.78;;;6.90;99.90;;;;;;4952272;28;20119;-74
2023/03/02 09:29:57;;;;;;;16.23;5.53;;;7.00;99.90;;;;;;4951538;28;20106;-73
2023/03/02 09:32:22;;;;;;;14.77;5.85;;;7.10;99.90;;;;;;4952613;29;20039;-73
2023/03/02 09:34:48;;;;;;;11.63;5.80;;;7.00;99.90;;;;;;4948199;28;20051;-74
2023/03/02 09:37:14;;;;;;;15.52;5.35;;;6.90;99.90;;;;;;4951184;29;20110;-74
2023/03/02 09:39:40;;;;;;;16.35;6.47;;;7.00;99.90;;;;;;4947294;28;20459;-74
2023/03/02 09:42:24;;;;;;;16.70;6.70;;;7.20;99.90;;;;;;4950632;28;20558;-73
2023/03/02 09:45:13;;;;;;;13.45;5.63;;;7.40;99.90;;;;;;4951788;28;20402;-74
2023/03/02 09:48:15;;;;;;;17.23;4.45;;;7.60;99.60;;;;;;4945991;29;20395;-74
2023/03/02 09:50:59;;;;;;;14.10;5.10;;;7.80;99.40;;;;;;4948699;28;20801;-72
2023/03/02 09:54:12;;;;;;;11.98;6.45;;;7.90;99.30;;;;;;4932259;29;20115;-71
2023/03/02 09:56:53;;;;;;;16.13;6.00;;;8.20;98.90;;;;;;4961482;28;20035;-72
2023/03/02 09:59:44;;;;;;;11.57;5.03;;;8.40;98.90;;;;;;4965744;28;20038;-74
2023/03/02 10:02:34;;;;;;;8.43;4.30;;;8.50;98.20;;;;;;4951696;28;20051;-74
2023/03/02 10:05:05;;;;;;;10.43;5.40;;;8.50;98.00;;;;;;4946623;29;20034;-73
2023/03/02 10:07:33;;;;;;;;;;;8.60;97.80;;;;;;4966991;28;20063;-74
2023/03/02 10:10:21;;;;;;;14.93;6.43;;;8.60;98.10;;;;;;4945547;29;19929;-74
2023/03/02 10:13:15;;;;;;;10.50;4.88;;;8.90;97.70;;;;;;4951944;28;20031;-74
2023/03/02 10:16:26;;;;;;;10.38;5.03;;;9.00;97.40;;;;;;4951443;28;20035;-73
2023/03/02 10:19:31;;;;;;;9.07;4.75;;;9.00;97.20;;;;;;4942028;28;20047;-72
2023/03/02 10:22:16;;;;;;;13.52;4.82;;;9.20;97.00;;;;;;4947080;29;20069;-73
2023/03/02 10:25:13;;;;;;;16.95;5.05;;;9.50;96.30;;;;;;4950013;28;20080;-73
2023/03/02 10:27:43;;;;;;;11.23;5.43;;;9.50;96.10;;;;;;4959595;28;20365;-73
2023/03/02 10:30:30;;;;;;;14.25;5.43;;;9.80;96.10;;;;;;4950984;28;20128;-72
2023/03/02 10:33:07;;;;;;;11.13;5.65;;;10.10;95.80;;;;;;4965416;28;20027;-72
2023/03/02 10:35:35;;;;;;;9.80;5.03;;;10.30;96.00;;;;;;4950141;29;20102;-72
2023/03/02 10:38:15;;;;;;;15.95;5.97;;;10.60;95.20;;;;;;4952416;28;20510;-70
2023/03/02 10:40:58;;;;;;;8.05;4.93;;;10.80;94.80;;;;;;4947422;28;20051;-72
2023/03/02 10:43:45;;;;;;;11.85;5.28;;;10.60;94.70;;;;;;4947498;29;20488;-72
2023/03/02 10:46:13;;;;;;;16.63;4.25;;;10.40;95.00;;;;;;4949916;29;20114;-71
2023/03/02 10:49:00;;;;;;;12.00;5.03;;;10.70;94.70;;;;;;4949523;29;20586;-73
2023/03/02 10:51:31;;;;;;;15.45;5.40;;;10.20;94.80;;;;;;4950542;29;20023;-72
2023/03/02 10:54:14;;;;;;;14.57;4.78;;;10.50;94.60;;;;;;4951073;28;20031;-73
2023/03/02 10:56:50;;;;;;;26.60;6.88;;;11.10;94.40;;;;;;4951442;28;20027;-70
2023/03/02 10:59:38;;;;;;;13.88;5.10;;;11.50;94.30;;;;;;4949659;28;20027;-71
2023/03/02 11:02:23;;;;;;;14.13;4.90;;;11.30;93.90;;;;;;4951437;28;20055;-73
2023/03/02 11:05:25;;;;;;;11.70;5.03;;;11.80;93.30;;;;;;4951263;28;20050;-74
2023/03/02 11:07:56;;;;;;;14.65;4.70;;;11.90;93.10;;;;;;4951365;29;20425;-76
2023/03/02 11:10:33;;;;;;;;;;;12.30;92.70;;;;;;4951464;28;20094;-74
2023/03/02 11:13:00;;;;;;;8.88;4.20;;;12.50;91.30;;;;;;4970731;28;19986;-73
2023/03/02 11:15:33;;;;;;;11.90;4.70;;;12.00;92.20;;;;;;4952798;28;20041;-72
2023/03/02 11:18:12;;;;;;;9.50;4.40;;;12.20;92.90;;;;;;4954521;29;20403;-72
2023/03/02 11:20:44;;;;;;;13.25;4.95;;;13.00;91.60;;;;;;4952745;28;20507;-70
2023/03/02 11:23:14;;;;;;;13.48;5.22;;;13.80;90.70;;;;;;4953353;28;20066;-74
2023/03/02 11:25:48;;;;;;;12.90;5.20;;;14.40;89.00;;;;;;4961256;28;20035;-77
2023/03/02 11:28:34;;;;;;;12.88;4.70;;;15.50;88.10;;;;;;4952945;28;20492;-79
2023/03/02 11:31:06;;;;;;;11.07;5.10;;;16.20;82.70;;;;;;4966482;28;20063;-77
2023/03/02 11:34:27;;;;;;;11.52;4.40;;;17.80;80.20;;;;;;4953186;28;20039;-76
2023/03/02 11:37:05;;;;;;;;;;;19.00;74.50;;;;;;4971500;28;20039;-69
2023/03/02 11:39:47;;;;;;;9.45;4.13;;;16.70;73.60;;;;;;4941481;29;19925;-68
2023/03/02 11:42:29;;;;;;;9.30;4.45;;;18.60;72.40;;;;;;4952516;28;20451;-76
2023/03/02 11:44:55;;;;;;;10.70;4.28;;;19.50;69.60;;;;;;4948656;28;20027;-76
2023/03/02 11:47:21;;;;;;;9.90;4.68;;;19.10;68.40;;;;;;4968792;28;20117;-76
2023/03/02 11:49:56;;;;;;;8.85;4.28;;;19.40;67.00;;;;;;4948491;28;20029;-76
2023/03/02 11:52:29;;;;;;;14.45;4.93;;;19.90;65.60;;;;;;4957918;28;20534;-75
2023/03/02 11:55:05;;;;;;;14.25;5.85;;;18.90;66.50;;;;;;4942367;29;20067;-74
2023/03/02 11:57:36;;;;;;;10.82;5.30;;;19.90;64.90;;;;;;4954127;29;20043;-75
2023/03/02 12:00:11;;;;;;;15.20;5.00;;;18.80;64.20;;;;;;4951235;28;20071;-76
2023/03/02 12:02:36;;;;;;;9.77;4.57;;;19.80;63.80;;;;;;4952729;28;20035;-75
2023/03/02 12:05:21;;;;;;;12.95;5.03;;;20.60;62.40;;;;;;4953093;28;20038;-75
2023/03/02 12:08:01;;;;;;;12.90;5.05;;;19.10;64.80;;;;;;4952873;29;20046;-75
2023/03/02 12:10:39;;;;;;;9.55;4.63;;;20.20;62.70;;;;;;4954251;28;20042;-76
2023/03/02 12:13:27;;;;;;;10.63;4.57;;;20.40;62.00;;;;;;4955134;28;20492;-75
2023/03/02 12:15:55;;;;;;;10.32;3.92;;;20.20;62.50;;;;;;4967604;28;20046;-75
2023/03/02 12:18:20;;;;;;;8.32;4.78;;;20.20;61.80;;;;;;4965908;28;20105;-75
2023/03/02 12:21:17;;;;;;;13.13;4.45;;;20.10;61.60;;;;;;4952453;28;20499;-74
2023/03/02 12:23:46;;;;;;;11.85;4.93;;;20.40;61.10;;;;;;4968317;28;20035;-74
2023/03/02 12:26:20;;;;;;;12.20;4.63;;;19.50;61.70;;;;;;4952522;29;20050;-75
2023/03/02 12:29:08;;;;;;;9.30;4.85;;;19.60;61.60;;;;;;4953101;28;20031;-75
2023/03/02 12:31:44;;;;;;;13.52;4.57;;;19.10;61.90;;;;;;4953013;29;20152;-75
2023/03/02 12:34:28;;;;;;;9.35;4.72;;;20.70;61.30;;;;;;4967340;28;20039;-75
2023/03/02 12:37:02;;;;;;;9.30;4.18;;;20.80;60.10;;;;;;4950113;28;20031;-74
2023/03/02 12:40:01;;;;;;;11.82;4.13;;;20.00;60.00;;;;;;4966979;28;20050;-75
2023/03/02 12:43:00;;;;;;;9.80;4.80;;;20.20;60.40;;;;;;4946518;28;20326;-74
2023/03/02 12:46:00;;;;;;;9.18;4.95;;;20.60;60.00;;;;;;4952703;28;20023;-74
2023/03/02 12:48:47;;;;;;;9.15;4.55;;;19.20;60.40;;;;;;4945133;28;20027;-74
2023/03/02 12:51:29;;;;;;;9.63;4.88;;;19.00;62.10;;;;;;4952312;29;20043;-75
2023/03/02 12:54:16;;;;;;;13.25;4.53;;;19.30;60.90;;;;;;4953031;28;20042;-75
2023/03/02 12:56:42;;;;;;;11.32;4.40;;;20.50;60.10;;;;;;4947341;29;20046;-75
2023/03/02 12:59:26;;;;;;;11.05;4.38;;;20.90;59.50;;;;;;4934640;29;20488;-75
2023/03/02 13:02:24;;;;;;;12.65;5.28;;;20.80;59.20;;;;;;4963956;28;20031;-75
2023/03/02 13:04:58;;;;;;;11.48;4.18;;;21.20;58.50;;;;;;4952427;28;20502;-76
2023/03/02 13:07:52;;;;;;;9.07;4.80;;;20.60;59.50;;;;;;4945551;29;20057;-74
2023/03/02 13:10:34;;;;;;;9.27;3.92;;;21.10;58.50;;;;;;4973139;23;20058;-73
2023/03/02 13:13:03;;;;;;;11.55;4.65;;;19.60;59.70;;;;;;4969624;28;20031;-74